createdAt,value
2023-03-29T00:02:17.477Z,-2.48
2023-03-29T00:04:48.724Z,-2.47
2023-03-29T00:07:17.785Z,-2.43
2023-03-29T00:09:48.892Z,-2.29
2023-03-29T00:12:19.081Z,-2.29
2023-03-29T00:14:50.566Z,-2.25
2023-03-29T00:17:21.110Z,-2.12
2023-03-29T00:19:50.298Z,-2.06
2023-03-29T00:22:21.638Z,-1.99
2023-03-29T00:24:54.405Z,-1.97
2023-03-29T00:27:24.729Z,-2.02
2023-03-29T00:29:56.226Z,-1.92
2023-03-29T00:32:26.516Z,-1.83
2023-03-29T00:34:57.226Z,-1.75
2023-03-29T00:37:30.236Z,-1.74
2023-03-29T00:39:59.191Z,-1.81
2023-03-29T00:42:28.445Z,-1.75
2023-03-29T00:45:11.016Z,-1.70
2023-03-29T00:47:40.297Z,-1.70
2023-03-29T00:50:13.796Z,-1.69
2023-03-29T00:52:44.960Z,-1.75
2023-03-29T00:55:20.537Z,-1.89
2023-03-29T00:57:53.336Z,-1.97
2023-03-29T01:00:30.033Z,-2.15
2023-03-29T01:03:01.673Z,-2.33
2023-03-29T01:05:34.532Z,-2.35
2023-03-29T01:08:08.304Z,-2.41
2023-03-29T01:10:42.145Z,-2.48
2023-03-29T01:13:14.759Z,-2.44
2023-03-29T01:15:47.279Z,-2.37
2023-03-29T01:18:20.112Z,-2.36
2023-03-29T01:20:49.530Z,-2.30
2023-03-29T01:23:22.418Z,-2.30
2023-03-29T01:25:52.730Z,-2.31
2023-03-29T01:28:26.957Z,-2.34
2023-03-29T01:31:10.259Z,-2.43
2023-03-29T01:33:43.847Z,-2.55
2023-03-29T01:36:20.941Z,-2.53
2023-03-29T01:38:58.228Z,-2.43
2023-03-29T01:41:36.678Z,-2.44
2023-03-29T01:44:11.501Z,-2.45
2023-03-29T01:46:47.022Z,-2.44
2023-03-29T01:49:34.543Z,-2.35
2023-03-29T01:52:10.657Z,-2.38
2023-03-29T01:54:42.963Z,-2.44
2023-03-29T01:57:14.817Z,-2.59
2023-03-29T01:59:47.371Z,-2.69
2023-03-29T02:02:20.001Z,-2.81
2023-03-29T02:04:52.229Z,-2.90
2023-03-29T02:07:24.667Z,-3.01
2023-03-29T02:09:54.845Z,-3.10
2023-03-29T02:12:25.223Z,-3.19
2023-03-29T02:14:59.884Z,-3.18
2023-03-29T02:17:31.043Z,-3.13
2023-03-29T02:20:21.078Z,-3.08
2023-03-29T02:22:54.069Z,-3.07
2023-03-29T02:25:24.998Z,-3.04
2023-03-29T02:27:55.344Z,-2.99
2023-03-29T02:30:28.649Z,-2.90
2023-03-29T02:33:00.963Z,-2.95
2023-03-29T02:35:35.445Z,-2.97
2023-03-29T02:38:05.928Z,-3.05
2023-03-29T02:40:35.981Z,-3.02
2023-03-29T02:43:07.405Z,-3.07
2023-03-29T02:45:39.543Z,-3.16
2023-03-29T02:48:12.786Z,-3.24
2023-03-29T02:50:44.485Z,-3.32
2023-03-29T02:53:15.589Z,-3.39
2023-03-29T02:55:46.512Z,-3.44
2023-03-29T02:58:18.154Z,-3.49
2023-03-29T03:00:49.052Z,-3.57
2023-03-29T03:03:18.473Z,-3.64
2023-03-29T03:05:51.325Z,-3.69
2023-03-29T03:08:21.531Z,-3.73
2023-03-29T03:10:50.837Z,-3.79
2023-03-29T03:13:21.283Z,-3.83
2023-03-29T03:15:52.141Z,-3.84
2023-03-29T03:18:22.943Z,-3.84
2023-03-29T03:20:56.707Z,-3.84
2023-03-29T03:23:31.065Z,-3.89
2023-03-29T03:26:01.483Z,-3.93
2023-03-29T03:28:33.663Z,-3.98
2023-03-29T03:31:03.720Z,-3.97
2023-03-29T03:34:00.067Z,-3.95
2023-03-29T03:36:49.893Z,-3.95
2023-03-29T03:39:18.705Z,-3.94
2023-03-29T03:41:49.487Z,-3.96
2023-03-29T03:44:19.186Z,-4.01
2023-03-29T03:46:51.507Z,-4.09
2023-03-29T03:49:22.264Z,-4.16
2023-03-29T03:51:54.965Z,-4.20
2023-03-29T03:54:24.586Z,-4.26
2023-03-29T03:57:17.865Z,-4.30
2023-03-29T03:59:53.961Z,-4.35
2023-03-29T04:02:31.190Z,-4.40
2023-03-29T04:05:03.724Z,-4.41
2023-03-29T04:07:37.759Z,-4.41
2023-03-29T04:10:45.361Z,-4.42
2023-03-29T04:13:20.703Z,-4.42
2023-03-29T04:16:09.337Z,-4.40
2023-03-29T04:18:40.830Z,-4.38
2023-03-29T04:21:10.903Z,-4.35
2023-03-29T04:23:43.515Z,-4.33
2023-03-29T04:26:12.747Z,-4.32
2023-03-29T04:28:46.894Z,-4.32
2023-03-29T04:31:23.336Z,-4.31
2023-03-29T04:34:26.340Z,-4.32
2023-03-29T04:36:56.702Z,-4.32
2023-03-29T04:39:33.526Z,-4.30
2023-03-29T04:42:04.182Z,-4.28
2023-03-29T04:44:35.711Z,-4.28
2023-03-29T04:47:09.603Z,-4.34
2023-03-29T04:49:52.324Z,-4.40
2023-03-29T04:52:33.695Z,-4.43
2023-03-29T04:55:04.444Z,-4.43
2023-03-29T04:57:47.645Z,-4.38
2023-03-29T05:00:28.659Z,-4.34
2023-03-29T05:03:13.913Z,-4.29
2023-03-29T05:05:52.127Z,-4.21
2023-03-29T05:08:23.620Z,-4.12
2023-03-29T05:11:12.852Z,-3.99
2023-03-29T05:13:43.070Z,-3.87
2023-03-29T05:16:12.412Z,-3.79
2023-03-29T05:18:41.489Z,-3.73
2023-03-29T05:21:12.488Z,-3.66
2023-03-29T05:23:47.040Z,-3.57
2023-03-29T05:26:20.709Z,-3.49
2023-03-29T05:28:54.874Z,-3.40
2023-03-29T05:31:24.386Z,-3.35
2023-03-29T05:33:56.326Z,-3.29
2023-03-29T05:36:28.612Z,-3.24
2023-03-29T05:38:58.351Z,-3.17
2023-03-29T05:41:30.744Z,-3.08
2023-03-29T05:44:19.729Z,-2.97
2023-03-29T05:46:53.008Z,-2.85
2023-03-29T05:49:21.975Z,-2.75
2023-03-29T05:52:04.539Z,-2.64
2023-03-29T05:54:34.521Z,-2.55
2023-03-29T05:57:03.742Z,-2.46
2023-03-29T05:59:34.683Z,-2.37
2023-03-29T06:02:07.221Z,-2.26
2023-03-29T06:04:39.289Z,-2.15
2023-03-29T06:07:27.236Z,-2.03
2023-03-29T06:10:18.444Z,-1.92
2023-03-29T06:12:51.963Z,-1.80
2023-03-29T06:15:25.785Z,-1.68
2023-03-29T06:18:02.960Z,-1.55
2023-03-29T06:20:57.522Z,-1.43
2023-03-29T06:23:29.842Z,-1.29
2023-03-29T06:26:00.679Z,-1.22
2023-03-29T06:28:30.678Z,-1.10
2023-03-29T06:31:03.354Z,-0.91
2023-03-29T06:33:38.891Z,-0.74
2023-03-29T06:36:27.074Z,-0.44
2023-03-29T06:38:57.591Z,-0.20
2023-03-29T06:41:50.294Z,-0.11
2023-03-29T06:44:39.330Z,0.16
2023-03-29T06:47:17.189Z,0.35
2023-03-29T06:49:47.673Z,0.53
2023-03-29T06:52:48.411Z,2.70
2023-03-29T06:55:20.599Z,5.81
2023-03-29T06:57:52.808Z,8.40
2023-03-29T07:00:36.748Z,10.50
2023-03-29T07:03:13.952Z,12.40
2023-03-29T07:05:46.349Z,14.08
2023-03-29T07:08:17.609Z,15.59
2023-03-29T07:11:00.168Z,16.69
2023-03-29T07:13:52.112Z,17.67
2023-03-29T07:16:24.725Z,18.40
2023-03-29T07:19:35.640Z,19.06
2023-03-29T07:22:06.129Z,19.89
2023-03-29T07:24:45.249Z,20.16
2023-03-29T07:27:17.005Z,19.92
2023-03-29T07:29:56.318Z,20.09
2023-03-29T07:32:26.010Z,19.95
2023-03-29T07:35:09.450Z,20.47
2023-03-29T07:37:41.372Z,20.83
2023-03-29T07:40:24.732Z,21.09
2023-03-29T07:42:59.586Z,21.65
2023-03-29T07:45:33.289Z,21.74
2023-03-29T07:48:11.210Z,22.14
2023-03-29T07:50:56.657Z,22.56
2023-03-29T07:53:31.760Z,22.59
2023-03-29T07:56:03.601Z,22.72
2023-03-29T07:58:47.126Z,22.98
2023-03-29T08:01:20.727Z,23.33
2023-03-29T08:07:21.805Z,22.96
2023-03-29T08:10:06.395Z,22.17
2023-03-29T08:12:54.634Z,22.35
2023-03-29T08:15:31.534Z,22.32
2023-03-29T08:18:02.282Z,22.43
2023-03-29T08:21:24.155Z,22.68
2023-03-29T08:23:54.516Z,23.10
2023-03-29T08:26:29.250Z,22.88
2023-03-29T08:29:00.080Z,22.96
2023-03-29T08:31:31.144Z,22.90
2023-03-29T08:34:03.523Z,23.46
2023-03-29T08:37:05.257Z,23.84
2023-03-29T08:39:42.550Z,24.13
2023-03-29T08:42:56.362Z,24.16
2023-03-29T08:45:39.680Z,24.65
2023-03-29T08:48:30.823Z,25.07
2023-03-29T08:51:07.780Z,25.40
2023-03-29T08:53:45.549Z,24.91
2023-03-29T08:56:34.135Z,24.57
2023-03-29T08:59:36.245Z,24.64
2023-03-29T09:02:14.749Z,24.61
2023-03-29T09:04:45.347Z,24.90
2023-03-29T09:07:33.356Z,24.92
2023-03-29T09:10:04.015Z,24.52
2023-03-29T09:12:58.406Z,24.05
2023-03-29T09:15:56.839Z,24.11
2023-03-29T09:18:34.767Z,23.93
2023-03-29T09:25:26.009Z,23.88
2023-03-29T09:28:00.844Z,23.75
2023-03-29T09:31:02.437Z,23.53
2023-03-29T09:33:43.104Z,23.66
2023-03-29T09:36:41.344Z,23.70
2023-03-29T09:39:18.104Z,23.68
2023-03-29T09:42:09.692Z,23.85
2023-03-29T09:44:44.288Z,23.51
2023-03-29T09:47:19.995Z,23.23
2023-03-29T09:49:52.180Z,23.64
2023-03-29T09:52:23.077Z,23.97
2023-03-29T09:55:04.262Z,23.95
2023-03-29T09:57:53.232Z,23.87
2023-03-29T10:00:26.493Z,24.14
2023-03-29T10:02:58.343Z,23.98
2023-03-29T10:05:41.279Z,23.22
2023-03-29T10:08:20.405Z,21.68
2023-03-29T10:10:52.630Z,21.38
2023-03-29T10:13:28.475Z,21.45
2023-03-29T10:16:09.308Z,21.36
2023-03-29T10:18:45.733Z,21.52
2023-03-29T10:21:25.239Z,21.68
2023-03-29T10:24:00.551Z,21.57
2023-03-29T10:26:32.335Z,21.98
2023-03-29T10:29:04.062Z,22.00
2023-03-29T10:31:34.099Z,21.90
2023-03-29T10:34:05.209Z,22.16
2023-03-29T10:36:34.678Z,22.49
2023-03-29T10:39:06.446Z,22.28
2023-03-29T10:41:37.325Z,21.58
2023-03-29T10:44:06.399Z,21.22
2023-03-29T10:46:42.806Z,20.86
2023-03-29T10:49:21.248Z,20.72
2023-03-29T10:51:55.959Z,20.63
2023-03-29T10:54:31.188Z,20.38
2023-03-29T10:57:04.100Z,19.86
2023-03-29T10:59:36.598Z,19.31
2023-03-29T11:02:15.556Z,19.23
2023-03-29T11:04:47.298Z,19.10
2023-03-29T11:07:27.381Z,18.95
2023-03-29T11:10:15.122Z,18.34
2023-03-29T11:12:55.114Z,17.64
2023-03-29T11:15:49.385Z,17.74
2023-03-29T11:18:30.948Z,17.74
2023-03-29T11:21:27.734Z,17.92
2023-03-29T11:24:13.192Z,18.17
2023-03-29T11:27:07.380Z,18.09
2023-03-29T11:29:48.299Z,17.56
2023-03-29T11:32:18.832Z,17.03
2023-03-29T11:34:49.870Z,16.53
2023-03-29T11:37:27.992Z,16.59
2023-03-29T11:40:18.320Z,16.41
2023-03-29T11:42:50.059Z,16.10
2023-03-29T11:45:26.789Z,15.89
2023-03-29T11:48:13.858Z,15.75
2023-03-29T11:50:50.462Z,15.34
2023-03-29T11:53:27.316Z,15.39
2023-03-29T11:55:57.617Z,15.59
2023-03-29T11:58:32.659Z,15.34
2023-03-29T12:01:13.502Z,14.98
2023-03-29T12:03:46.915Z,14.65
2023-03-29T12:06:32.481Z,14.76
2023-03-29T12:09:16.942Z,14.56
2023-03-29T12:11:51.870Z,14.39
2023-03-29T12:14:28.344Z,14.29
2023-03-29T12:17:05.590Z,14.10
2023-03-29T12:23:23.090Z,13.89
2023-03-29T12:26:04.645Z,13.55
2023-03-29T12:28:52.156Z,13.42
2023-03-29T12:31:40.310Z,13.68
2023-03-29T12:34:35.721Z,13.78
2023-03-29T12:37:48.060Z,13.83
2023-03-29T12:40:53.869Z,13.75
2023-03-29T12:43:43.808Z,13.45
2023-03-29T12:46:36.523Z,13.19
2023-03-29T12:49:21.531Z,13.43
2023-03-29T12:52:00.127Z,13.49
2023-03-29T12:54:31.949Z,13.42
2023-03-29T12:57:02.972Z,13.33
2023-03-29T12:59:49.416Z,13.36
2023-03-29T13:02:39.512Z,13.42
2023-03-29T13:05:27.906Z,13.07
2023-03-29T13:07:58.116Z,13.20
2023-03-29T13:10:35.002Z,13.31
2023-03-29T13:13:12.970Z,13.13
2023-03-29T13:15:44.321Z,12.74
2023-03-29T13:18:22.084Z,12.25
2023-03-29T13:21:14.408Z,11.92
2023-03-29T13:24:03.375Z,11.92
2023-03-29T13:26:39.508Z,12.08
2023-03-29T13:29:24.873Z,11.95
2023-03-29T13:32:14.588Z,11.48
2023-03-29T13:34:44.025Z,11.31
2023-03-29T13:37:23.450Z,11.02
2023-03-29T13:39:56.107Z,10.73
2023-03-29T13:42:27.599Z,10.58
2023-03-29T13:45:07.012Z,10.30
2023-03-29T13:47:43.187Z,9.99
2023-03-29T13:50:19.207Z,9.77
2023-03-29T13:53:00.261Z,9.61
2023-03-29T13:55:38.432Z,9.42
2023-03-29T13:58:26.420Z,9.29
2023-03-29T14:01:13.096Z,9.21
2023-03-29T14:03:46.205Z,9.14
2023-03-29T14:06:18.850Z,9.11
2023-03-29T14:08:49.917Z,9.11
2023-03-29T14:11:27.295Z,9.14
2023-03-29T14:13:57.395Z,9.12
2023-03-29T14:16:33.925Z,9.11
2023-03-29T14:19:05.513Z,9.19
2023-03-29T14:21:34.272Z,9.33
2023-03-29T14:24:04.505Z,9.49
2023-03-29T14:26:35.009Z,9.66
2023-03-29T14:29:04.787Z,9.90
2023-03-29T14:31:35.926Z,10.03
2023-03-29T14:34:06.574Z,10.13
2023-03-29T14:36:37.664Z,10.17
2023-03-29T14:39:11.299Z,10.25
2023-03-29T14:41:42.913Z,9.97
2023-03-29T14:44:13.578Z,9.69
2023-03-29T14:46:47.453Z,9.54
2023-03-29T14:49:19.948Z,9.39
2023-03-29T14:51:58.883Z,9.22
2023-03-29T14:54:34.340Z,9.08
2023-03-29T14:57:08.618Z,8.98
2023-03-29T14:59:40.061Z,8.91
2023-03-29T15:02:30.078Z,8.81
2023-03-29T15:05:01.666Z,8.87
2023-03-29T15:07:33.033Z,8.93
2023-03-29T15:10:06.169Z,8.94
2023-03-29T15:12:36.093Z,8.99
2023-03-29T15:15:15.211Z,9.12
2023-03-29T15:17:55.707Z,9.23
2023-03-29T15:24:33.258Z,9.30
2023-03-29T15:27:04.766Z,9.21
2023-03-29T15:29:36.578Z,9.08
2023-03-29T15:32:11.251Z,8.94
2023-03-29T15:34:50.131Z,8.79
2023-03-29T15:37:23.890Z,8.58
2023-03-29T15:39:54.176Z,8.46
2023-03-29T15:42:23.601Z,8.36
2023-03-29T15:44:56.767Z,8.26
2023-03-29T15:47:32.503Z,8.16
2023-03-29T15:50:10.711Z,8.05
2023-03-29T15:52:48.634Z,7.98
2023-03-29T15:55:20.476Z,7.92
2023-03-29T15:57:49.982Z,7.89
2023-03-29T16:00:22.358Z,7.85
2023-03-29T16:02:52.283Z,7.80
2023-03-29T16:05:24.203Z,7.73
2023-03-29T16:07:53.446Z,7.66
2023-03-29T16:10:23.329Z,7.60
2023-03-29T16:13:00.186Z,7.56
2023-03-29T16:15:39.776Z,7.49
2023-03-29T16:18:18.474Z,7.43
2023-03-29T16:21:02.893Z,7.36
2023-03-29T16:23:37.366Z,7.28
2023-03-29T16:26:06.821Z,7.21
2023-03-29T16:28:36.158Z,7.14
2023-03-29T16:31:07.089Z,7.06
2023-03-29T16:33:37.527Z,6.97
2023-03-29T16:36:12.562Z,6.89
2023-03-29T16:38:49.525Z,6.80
2023-03-29T16:41:28.689Z,6.72
2023-03-29T16:44:24.145Z,6.64
2023-03-29T16:47:04.158Z,6.60
2023-03-29T16:49:43.052Z,6.54
2023-03-29T16:52:18.833Z,6.48
2023-03-29T16:54:56.648Z,6.41
2023-03-29T16:57:38.125Z,6.34
2023-03-29T17:00:20.076Z,6.26
2023-03-29T17:03:09.353Z,6.17
2023-03-29T17:05:57.158Z,6.08
2023-03-29T17:08:48.764Z,6.02
2023-03-29T17:11:31.161Z,5.93
2023-03-29T17:14:10.851Z,5.84
2023-03-29T17:17:12.243Z,5.72
2023-03-29T17:24:12.827Z,5.51
2023-03-29T17:26:54.796Z,5.43
2023-03-29T17:29:38.387Z,5.36
2023-03-29T17:32:08.256Z,5.31
2023-03-29T17:34:39.730Z,5.28
2023-03-29T17:37:15.409Z,5.23
2023-03-29T17:39:46.854Z,5.20
2023-03-29T17:42:23.236Z,5.16
2023-03-29T17:44:54.682Z,5.13
2023-03-29T17:47:25.846Z,5.12
2023-03-29T17:49:58.054Z,5.12
2023-03-29T17:52:28.798Z,5.10
2023-03-29T17:55:01.154Z,5.09
2023-03-29T17:57:42.398Z,5.07
2023-03-29T18:00:14.484Z,5.06
2023-03-29T18:02:47.048Z,5.07
2023-03-29T18:05:21.081Z,5.07
2023-03-29T18:07:52.599Z,5.06
2023-03-29T18:10:25.506Z,5.04
2023-03-29T18:13:01.751Z,5.01
2023-03-29T18:15:35.572Z,4.99
2023-03-29T18:18:08.443Z,4.96
2023-03-29T18:20:47.908Z,4.93
2023-03-29T18:23:18.680Z,4.91
2023-03-29T18:25:50.096Z,4.90
2023-03-29T18:28:26.412Z,4.90
2023-03-29T18:31:00.264Z,4.90
2023-03-29T18:33:35.889Z,4.89
2023-03-29T18:36:10.834Z,4.88
2023-03-29T18:38:44.609Z,4.87
2023-03-29T18:41:16.597Z,4.86
2023-03-29T18:43:49.901Z,4.86
2023-03-29T18:46:22.660Z,4.87
2023-03-29T18:49:14.362Z,4.87
2023-03-29T18:51:49.733Z,4.89
2023-03-29T18:54:24.590Z,4.89
2023-03-29T18:56:57.817Z,4.89
2023-03-29T18:59:34.075Z,4.89
2023-03-29T19:02:08.489Z,4.88
2023-03-29T19:04:39.453Z,4.89
2023-03-29T19:07:11.446Z,4.89
2023-03-29T19:09:44.732Z,4.90
2023-03-29T19:12:26.846Z,4.89
2023-03-29T19:15:00.771Z,4.88
2023-03-29T19:17:34.521Z,4.85
2023-03-29T19:20:14.385Z,4.82
2023-03-29T19:22:47.738Z,4.80
2023-03-29T19:25:25.816Z,4.76
2023-03-29T19:27:58.105Z,4.71
2023-03-29T19:30:33.489Z,4.67
2023-03-29T19:33:06.185Z,4.62
2023-03-29T19:35:44.715Z,4.56
2023-03-29T19:38:16.976Z,4.51
2023-03-29T19:40:51.757Z,4.45
2023-03-29T19:43:25.817Z,4.41
2023-03-29T19:45:57.862Z,4.36
2023-03-29T19:48:31.548Z,4.32
2023-03-29T19:51:06.477Z,4.27
2023-03-29T19:53:39.167Z,4.24
2023-03-29T19:56:25.228Z,4.20
2023-03-29T19:58:58.854Z,4.19
2023-03-29T20:01:34.849Z,4.19
2023-03-29T20:04:10.501Z,4.19
2023-03-29T20:06:40.301Z,4.19
2023-03-29T20:09:12.444Z,4.18
2023-03-29T20:11:45.406Z,4.16
2023-03-29T20:14:15.431Z,4.17
2023-03-29T20:16:46.186Z,4.18
2023-03-29T20:19:17.707Z,4.21
2023-03-29T20:21:51.219Z,4.23
2023-03-29T20:24:20.451Z,4.25
2023-03-29T20:26:50.006Z,4.27
2023-03-29T20:29:20.197Z,4.28
2023-03-29T20:31:50.145Z,4.30
2023-03-29T20:34:20.976Z,4.32
2023-03-29T20:36:49.832Z,4.33
2023-03-29T20:39:20.097Z,4.34
2023-03-29T20:41:49.505Z,4.31
2023-03-29T20:44:18.983Z,4.30
2023-03-29T20:47:03.624Z,4.28
2023-03-29T20:49:39.081Z,4.27
2023-03-29T20:52:11.126Z,4.26
2023-03-29T20:54:40.858Z,4.25
2023-03-29T20:57:17.218Z,4.24
2023-03-29T20:59:48.237Z,4.22
2023-03-29T21:02:19.394Z,4.20
2023-03-29T21:04:52.253Z,4.19
2023-03-29T21:07:21.973Z,4.17
2023-03-29T21:09:51.302Z,4.15
2023-03-29T21:12:21.176Z,4.15
2023-03-29T21:14:51.817Z,4.16
2023-03-29T21:17:21.998Z,4.14
2023-03-29T21:20:41.227Z,4.13
2023-03-29T21:23:11.547Z,4.12
2023-03-29T21:25:43.474Z,4.13
2023-03-29T21:28:13.751Z,4.14
2023-03-29T21:30:44.618Z,4.15
2023-03-29T21:33:13.411Z,4.16
2023-03-29T21:35:42.509Z,4.17
2023-03-29T21:38:11.686Z,4.19
2023-03-29T21:40:40.411Z,4.22
2023-03-29T21:43:09.685Z,4.25
2023-03-29T21:45:38.609Z,4.28
2023-03-29T21:48:10.049Z,4.31
2023-03-29T21:50:39.195Z,4.32
2023-03-29T21:53:08.160Z,4.33
2023-03-29T21:55:38.765Z,4.35
2023-03-29T21:58:08.897Z,4.37
2023-03-29T22:00:39.384Z,4.40
2023-03-29T22:03:10.276Z,4.42
2023-03-29T22:05:55.097Z,4.44
2023-03-29T22:08:26.917Z,4.45
2023-03-29T22:10:57.181Z,4.45
2023-03-29T22:13:28.115Z,4.47
2023-03-29T22:16:01.509Z,4.48
2023-03-29T22:18:43.162Z,4.51
2023-03-29T22:22:01.867Z,4.52
2023-03-29T22:24:32.935Z,4.51
2023-03-29T22:27:02.025Z,4.49
2023-03-29T22:29:30.669Z,4.46
2023-03-29T22:32:01.678Z,4.43
2023-03-29T22:34:32.533Z,4.44
2023-03-29T22:37:03.288Z,4.42
2023-03-29T22:39:35.661Z,4.39
2023-03-29T22:42:04.628Z,4.39
2023-03-29T22:44:35.307Z,4.38
2023-03-29T22:47:04.299Z,4.36
2023-03-29T22:49:33.112Z,4.35
2023-03-29T22:52:01.876Z,4.34
2023-03-29T22:54:30.790Z,4.32
2023-03-29T22:57:01.177Z,4.31
2023-03-29T22:59:29.934Z,4.28
2023-03-29T23:02:01.096Z,4.26
2023-03-29T23:04:31.215Z,4.25
2023-03-29T23:07:00.989Z,4.25
2023-03-29T23:09:30.575Z,4.25
2023-03-29T23:11:59.840Z,4.25
2023-03-29T23:14:28.907Z,4.24
2023-03-29T23:16:58.752Z,4.23
2023-03-29T23:19:28.761Z,4.21
2023-03-29T23:21:57.853Z,4.19
2023-03-29T23:24:30.951Z,4.16
2023-03-29T23:27:03.399Z,4.14
2023-03-29T23:29:35.020Z,4.12
2023-03-29T23:32:03.816Z,4.12
2023-03-29T23:34:34.813Z,4.11
2023-03-29T23:37:04.632Z,4.12
2023-03-29T23:39:34.353Z,4.11
2023-03-29T23:42:04.379Z,4.11
2023-03-29T23:44:33.165Z,4.11
2023-03-29T23:47:03.494Z,4.10
2023-03-29T23:49:34.388Z,4.08
2023-03-29T23:52:04.362Z,4.07
2023-03-29T23:54:34.489Z,4.07
2023-03-29T23:57:05.153Z,4.07
2023-03-29T23:59:38.139Z,4.07
